createdAt,value
2023-02-13T00:00:48.643Z,4.90
2023-02-13T00:03:15.636Z,5.40
2023-02-13T00:05:42.731Z,5.10
2023-02-13T00:08:09.554Z,4.90
2023-02-13T00:10:39.899Z,4.40
2023-02-13T00:13:07.808Z,5.00
2023-02-13T00:18:05.390Z,6.20
2023-02-13T00:20:34.157Z,4.70
2023-02-13T00:23:01.158Z,4.50
2023-02-13T00:25:28.474Z,4.80
2023-02-13T00:27:55.243Z,4.50
2023-02-13T00:30:22.211Z,4.50
2023-02-13T00:32:49.894Z,4.70
2023-02-13T00:35:16.601Z,4.20
2023-02-13T00:37:43.477Z,4.60
2023-02-13T00:40:11.322Z,4.30
2023-02-13T00:42:38.930Z,4.70
2023-02-13T00:45:08.289Z,7.90
2023-02-13T00:47:36.642Z,5.80
2023-02-13T00:50:03.617Z,7.90
2023-02-13T00:52:30.674Z,8.80
2023-02-13T00:54:57.501Z,7.40
2023-02-13T00:57:38.968Z,6.70
2023-02-13T01:00:06.955Z,7.70
2023-02-13T01:02:35.679Z,6.90
2023-02-13T01:05:05.565Z,8.10
2023-02-13T01:07:32.929Z,6.70
2023-02-13T01:10:00.222Z,7.00
2023-02-13T01:12:27.025Z,7.10
2023-02-13T01:14:53.874Z,6.40
2023-02-13T01:17:20.706Z,7.50
2023-02-13T01:19:48.673Z,6.80
2023-02-13T01:22:15.516Z,7.50
2023-02-13T01:24:43.829Z,6.40
2023-02-13T01:27:10.554Z,5.60
2023-02-13T01:29:37.341Z,4.60
2023-02-13T01:32:05.122Z,4.90
2023-02-13T01:34:32.807Z,4.70
2023-02-13T01:37:03.842Z,4.40
2023-02-13T01:39:31.509Z,6.30
2023-02-13T01:41:58.360Z,6.10
2023-02-13T01:44:54.893Z,5.30
2023-02-13T01:47:39.863Z,5.30
2023-02-13T01:50:28.929Z,5.50
2023-02-13T01:53:23.719Z,5.30
2023-02-13T01:56:24.057Z,5.60
2023-02-13T01:58:54.780Z,5.60
2023-02-13T02:03:59.880Z,4.90
2023-02-13T02:14:27.000Z,6.60
2023-02-13T02:16:56.581Z,5.00
2023-02-13T02:19:27.219Z,5.10
2023-02-13T02:21:58.013Z,7.80
2023-02-13T02:24:47.602Z,15.90
2023-02-13T02:27:40.351Z,8.90
2023-02-13T02:30:42.650Z,6.40
2023-02-13T02:33:30.258Z,6.10
2023-02-13T02:36:03.961Z,5.90
2023-02-13T02:38:54.200Z,5.50
2023-02-13T02:41:43.614Z,6.20
2023-02-13T02:44:26.548Z,5.80
2023-02-13T02:47:22.470Z,5.60
2023-02-13T02:50:31.244Z,5.70
2023-02-13T02:53:20.463Z,5.40
2023-02-13T02:56:02.466Z,6.20
2023-02-13T02:58:55.210Z,6.20
2023-02-13T03:01:45.974Z,5.90
2023-02-13T03:04:39.686Z,5.70
2023-02-13T03:07:07.885Z,5.50
2023-02-13T03:09:58.263Z,5.50
2023-02-13T03:12:52.043Z,5.50
2023-02-13T03:15:18.980Z,5.00
2023-02-13T03:18:04.820Z,5.60
2023-02-13T03:21:24.122Z,5.40
2023-02-13T03:24:02.003Z,5.20
2023-02-13T03:26:45.170Z,4.90
2023-02-13T03:29:44.491Z,5.90
2023-02-13T03:32:17.363Z,4.90
2023-02-13T03:35:13.081Z,5.30
2023-02-13T03:37:55.864Z,5.00
2023-02-13T03:41:05.673Z,5.60
2023-02-13T03:43:38.951Z,4.70
2023-02-13T03:46:05.613Z,5.70
2023-02-13T03:48:55.053Z,5.80
2023-02-13T03:51:34.470Z,5.60
2023-02-13T03:54:04.387Z,6.20
2023-02-13T03:56:49.990Z,5.00
2023-02-13T03:59:22.842Z,6.10
2023-02-13T04:01:58.051Z,5.70
2023-02-13T04:04:25.070Z,6.10
2023-02-13T04:06:55.901Z,6.00
2023-02-13T04:12:19.507Z,5.80
2023-02-13T04:14:54.881Z,5.60
2023-02-13T04:17:30.710Z,5.60
2023-02-13T04:19:57.425Z,6.40
2023-02-13T04:22:24.371Z,6.60
2023-02-13T04:24:51.211Z,5.80
2023-02-13T04:27:18.160Z,6.20
2023-02-13T04:29:45.171Z,6.00
2023-02-13T04:32:12.220Z,6.30
2023-02-13T04:34:40.046Z,6.90
2023-02-13T04:37:06.970Z,6.90
2023-02-13T04:39:34.640Z,6.60
2023-02-13T04:42:01.377Z,7.40
2023-02-13T04:44:28.220Z,7.00
2023-02-13T04:46:55.165Z,7.50
2023-02-13T04:49:22.528Z,9.00
2023-02-13T04:51:49.463Z,9.00
2023-02-13T04:54:16.426Z,7.70
2023-02-13T04:56:43.111Z,7.90
2023-02-13T04:59:10.309Z,7.50
2023-02-13T05:01:37.278Z,7.90
2023-02-13T05:04:04.556Z,8.00
2023-02-13T05:06:31.958Z,7.80
2023-02-13T05:08:58.818Z,7.30
2023-02-13T05:11:25.855Z,6.60
2023-02-13T05:13:52.891Z,5.00
2023-02-13T05:16:20.047Z,6.70
2023-02-13T05:18:46.730Z,6.00
2023-02-13T05:21:31.864Z,6.20
2023-02-13T05:23:58.718Z,6.60
2023-02-13T05:26:26.060Z,6.80
2023-02-13T05:29:11.564Z,6.30
2023-02-13T05:31:38.549Z,7.20
2023-02-13T05:34:05.641Z,6.70
2023-02-13T05:36:32.842Z,8.80
2023-02-13T05:39:00.145Z,8.30
2023-02-13T05:41:26.987Z,7.60
2023-02-13T05:43:53.845Z,8.30
2023-02-13T05:46:20.715Z,8.60
2023-02-13T05:48:51.517Z,11.30
2023-02-13T05:51:19.389Z,14.20
2023-02-13T05:53:46.224Z,12.80
2023-02-13T05:56:13.269Z,13.80
2023-02-13T05:58:40.933Z,16.00
2023-02-13T06:01:08.092Z,14.60
2023-02-13T06:03:35.140Z,16.10
2023-02-13T06:06:04.085Z,15.20
2023-02-13T06:08:31.177Z,13.00
2023-02-13T06:11:02.702Z,13.10
2023-02-13T06:13:30.620Z,11.60
2023-02-13T06:15:57.524Z,11.60
2023-02-13T06:18:24.398Z,10.80
2023-02-13T06:20:51.347Z,10.20
2023-02-13T06:23:18.172Z,9.10
2023-02-13T06:25:45.044Z,10.80
2023-02-13T06:28:11.858Z,10.10
2023-02-13T06:30:38.869Z,11.60
2023-02-13T06:33:05.850Z,11.80
2023-02-13T06:35:33.417Z,10.40
2023-02-13T06:38:00.482Z,11.90
2023-02-13T06:40:27.350Z,11.60
2023-02-13T06:42:54.097Z,12.50
2023-02-13T06:45:20.991Z,10.70
2023-02-13T06:47:47.988Z,10.90
2023-02-13T06:50:15.580Z,9.70
2023-02-13T06:52:49.881Z,9.40
2023-02-13T06:55:17.821Z,10.20
2023-02-13T06:57:45.152Z,11.50
2023-02-13T07:00:13.358Z,11.40
2023-02-13T07:02:40.998Z,13.60
2023-02-13T07:05:08.590Z,14.00
2023-02-13T07:07:36.270Z,14.40
2023-02-13T07:10:03.858Z,14.30
2023-02-13T07:12:33.278Z,15.80
2023-02-13T07:15:00.109Z,15.50
2023-02-13T07:17:27.060Z,14.70
2023-02-13T07:19:54.102Z,13.40
2023-02-13T07:22:28.058Z,15.00
2023-02-13T07:24:54.890Z,15.00
2023-02-13T07:27:21.496Z,12.90
2023-02-13T07:29:48.156Z,14.10
2023-02-13T07:32:15.178Z,13.90
2023-02-13T07:34:55.790Z,15.00
2023-02-13T07:37:30.427Z,14.80
2023-02-13T07:39:57.300Z,14.30
2023-02-13T07:42:24.405Z,15.20
2023-02-13T07:44:51.106Z,13.80
2023-02-13T07:47:20.069Z,14.20
2023-02-13T07:49:47.591Z,14.70
2023-02-13T07:52:14.410Z,14.20
2023-02-13T07:54:46.751Z,14.50
2023-02-13T07:57:15.464Z,14.70
2023-02-13T07:59:42.905Z,13.20
2023-02-13T08:02:13.851Z,13.00
2023-02-13T08:07:08.451Z,12.90
2023-02-13T08:09:53.766Z,14.50
2023-02-13T08:12:20.530Z,12.20
2023-02-13T08:14:47.246Z,12.80
2023-02-13T08:17:15.808Z,12.00
2023-02-13T08:19:43.141Z,10.20
2023-02-13T08:22:12.632Z,10.30
2023-02-13T08:24:39.472Z,10.70
2023-02-13T08:27:06.737Z,11.20
2023-02-13T08:29:34.208Z,10.70
2023-02-13T08:32:01.189Z,12.20
2023-02-13T08:34:31.069Z,11.00
2023-02-13T08:36:57.801Z,11.10
2023-02-13T08:39:24.750Z,11.10
2023-02-13T08:41:51.490Z,10.00
2023-02-13T08:44:18.111Z,11.40
2023-02-13T08:46:47.870Z,9.20
2023-02-13T08:49:14.645Z,10.80
2023-02-13T08:51:41.328Z,10.20
2023-02-13T08:54:07.998Z,10.50
2023-02-13T08:56:34.667Z,12.10
2023-02-13T08:59:01.453Z,10.60
2023-02-13T09:01:28.422Z,11.00
2023-02-13T09:03:55.239Z,10.00
2023-02-13T09:06:22.330Z,9.50
2023-02-13T09:08:49.263Z,8.50
2023-02-13T09:11:16.109Z,9.80
2023-02-13T09:13:47.613Z,9.20
2023-02-13T09:16:14.679Z,8.10
2023-02-13T09:18:41.264Z,9.10
2023-02-13T09:21:09.980Z,9.80
2023-02-13T09:23:37.968Z,8.10
2023-02-13T09:26:06.011Z,9.00
2023-02-13T09:28:33.831Z,8.10
2023-02-13T09:31:09.306Z,8.90
2023-02-13T09:33:36.769Z,6.90
2023-02-13T09:36:08.329Z,8.30
2023-02-13T09:38:35.324Z,7.20
2023-02-13T09:41:06.494Z,7.20
2023-02-13T09:43:36.151Z,6.90
2023-02-13T09:46:12.895Z,8.10
2023-02-13T09:48:40.372Z,7.90
2023-02-13T09:51:09.387Z,7.70
2023-02-13T09:53:42.841Z,7.30
2023-02-13T09:56:14.046Z,7.90
2023-02-13T09:58:46.290Z,7.60
2023-02-13T10:01:29.517Z,7.90
2023-02-13T10:04:30.429Z,7.80
2023-02-13T10:07:22.536Z,7.80
2023-02-13T10:09:56.377Z,6.00
2023-02-13T10:12:30.262Z,6.40
2023-02-13T10:15:31.290Z,6.70
2023-02-13T10:18:02.652Z,7.40
2023-02-13T10:20:46.537Z,6.60
2023-02-13T10:23:25.493Z,7.80
2023-02-13T10:25:59.241Z,7.10
2023-02-13T10:28:28.476Z,7.00
2023-02-13T10:30:57.604Z,7.20
2023-02-13T10:33:36.550Z,6.30
2023-02-13T10:36:09.273Z,6.40
2023-02-13T10:38:51.848Z,6.00
2023-02-13T10:41:53.509Z,5.90
2023-02-13T10:44:20.478Z,5.20
2023-02-13T10:47:29.181Z,6.50
2023-02-13T10:50:11.677Z,6.50
2023-02-13T10:52:45.513Z,6.20
2023-02-13T10:55:28.061Z,6.00
2023-02-13T10:58:06.480Z,6.00
2023-02-13T11:00:55.084Z,6.50
2023-02-13T11:03:23.630Z,6.70
2023-02-13T11:05:50.685Z,5.50
2023-02-13T11:08:22.447Z,6.60
2023-02-13T11:10:50.220Z,6.10
2023-02-13T11:13:25.402Z,6.20
2023-02-13T11:16:07.854Z,6.20
2023-02-13T11:18:37.371Z,6.10
2023-02-13T11:21:09.408Z,7.10
2023-02-13T11:23:37.051Z,6.00
2023-02-13T11:26:09.452Z,6.50
2023-02-13T11:28:48.840Z,6.40
2023-02-13T11:31:25.968Z,5.70
2023-02-13T11:33:52.753Z,7.00
2023-02-13T11:36:30.702Z,6.10
2023-02-13T11:39:03.023Z,5.40
2023-02-13T11:41:36.745Z,5.00
2023-02-13T11:44:03.688Z,5.70
2023-02-13T11:46:47.050Z,7.40
2023-02-13T11:49:20.843Z,7.80
2023-02-13T11:51:50.264Z,6.50
2023-02-13T11:54:27.782Z,8.70
2023-02-13T11:57:07.342Z,6.40
2023-02-13T11:59:42.011Z,6.10
2023-02-13T12:02:14.465Z,6.00
2023-02-13T12:04:42.345Z,6.00
2023-02-13T12:07:21.050Z,5.50
2023-02-13T12:09:57.192Z,6.20
2023-02-13T12:12:52.806Z,8.40
2023-02-13T12:15:24.736Z,7.90
2023-02-13T12:18:10.243Z,9.20
2023-02-13T12:20:59.270Z,8.70
2023-02-13T12:23:48.510Z,9.10
2023-02-13T12:26:35.671Z,9.00
2023-02-13T12:29:23.778Z,9.90
2023-02-13T12:32:19.862Z,9.90
2023-02-13T12:35:13.484Z,10.40
2023-02-13T12:38:03.555Z,8.80
2023-02-13T12:40:42.323Z,8.30
2023-02-13T12:43:20.775Z,8.60
2023-02-13T12:45:53.150Z,9.00
2023-02-13T12:48:27.977Z,9.80
2023-02-13T12:51:07.823Z,8.40
2023-02-13T12:53:43.777Z,9.60
2023-02-13T12:56:27.408Z,9.70
2023-02-13T12:59:02.120Z,9.80
2023-02-13T13:02:06.717Z,10.30
2023-02-13T13:04:57.252Z,10.80
2023-02-13T13:07:37.626Z,10.20
2023-02-13T13:10:19.585Z,11.90
2023-02-13T13:12:58.162Z,11.20
2023-02-13T13:15:38.135Z,11.70
2023-02-13T13:18:23.316Z,11.50
2023-02-13T13:20:51.444Z,10.20
2023-02-13T13:23:39.414Z,10.70
2023-02-13T13:26:31.535Z,11.40
2023-02-13T13:28:59.227Z,10.90
2023-02-13T13:31:27.057Z,12.50
2023-02-13T13:33:55.280Z,11.70
2023-02-13T13:36:36.533Z,11.20
2023-02-13T13:39:38.880Z,12.20
2023-02-13T13:42:34.036Z,12.60
2023-02-13T13:45:22.126Z,13.00
2023-02-13T13:47:58.242Z,10.70
2023-02-13T13:50:26.989Z,11.90
2023-02-13T13:53:24.973Z,12.80
2023-02-13T13:56:09.825Z,11.20
2023-02-13T13:58:39.365Z,11.00
2023-02-13T14:01:17.948Z,12.60
2023-02-13T14:03:46.137Z,12.50
2023-02-13T14:06:14.649Z,13.30
2023-02-13T14:08:43.683Z,11.10
2023-02-13T14:11:37.173Z,12.40
2023-02-13T14:14:32.080Z,13.20
2023-02-13T14:21:48.918Z,12.30
2023-02-13T14:24:16.297Z,12.10
2023-02-13T14:26:52.351Z,13.30
2023-02-13T14:29:28.838Z,15.30
2023-02-13T14:32:13.638Z,13.00
2023-02-13T14:34:43.153Z,13.40
2023-02-13T14:37:12.437Z,11.50
2023-02-13T14:39:41.565Z,14.40
2023-02-13T14:42:27.879Z,12.70
2023-02-13T14:44:58.697Z,13.00
2023-02-13T14:47:42.059Z,13.70
2023-02-13T14:50:15.341Z,13.90
2023-02-13T14:52:42.917Z,11.60
2023-02-13T14:55:16.680Z,14.00
2023-02-13T14:57:46.579Z,13.70
2023-02-13T15:00:52.498Z,13.70
2023-02-13T15:03:27.903Z,13.50
2023-02-13T15:06:03.119Z,13.80
2023-02-13T15:08:36.947Z,13.50
2023-02-13T15:16:07.034Z,15.50
2023-02-13T15:18:45.905Z,14.70
2023-02-13T15:21:22.966Z,14.20
2023-02-13T15:23:56.429Z,14.70
2023-02-13T15:26:28.114Z,16.00
2023-02-13T15:29:35.205Z,14.60
2023-02-13T15:32:21.061Z,17.00
2023-02-13T15:34:50.403Z,14.20
2023-02-13T15:37:29.423Z,15.10
2023-02-13T15:40:28.968Z,15.80
2023-02-13T15:42:57.608Z,16.30
2023-02-13T15:45:28.952Z,15.50
2023-02-13T15:47:59.033Z,17.20
2023-02-13T15:50:30.266Z,16.10
2023-02-13T15:53:01.509Z,18.00
2023-02-13T15:55:33.027Z,16.50
2023-02-13T15:58:02.482Z,18.80
2023-02-13T16:00:33.414Z,17.30
2023-02-13T16:03:03.327Z,17.60
2023-02-13T16:13:06.500Z,18.70
2023-02-13T16:15:41.641Z,19.10
2023-02-13T16:18:18.281Z,19.30
2023-02-13T16:20:46.411Z,19.70
2023-02-13T16:23:17.327Z,21.40
2023-02-13T16:28:23.199Z,22.30
2023-02-13T16:30:53.929Z,24.20
2023-02-13T16:33:24.446Z,24.30
2023-02-13T16:35:57.153Z,24.70
2023-02-13T16:38:33.648Z,23.10
2023-02-13T16:41:03.380Z,25.50
2023-02-13T16:43:45.631Z,28.60
2023-02-13T16:46:19.871Z,26.90
2023-02-13T16:48:57.559Z,27.00
2023-02-13T16:51:46.988Z,28.70
2023-02-13T16:54:21.143Z,28.30
2023-02-13T16:56:54.951Z,26.60
2023-02-13T16:59:32.359Z,33.40
2023-02-13T17:02:27.235Z,29.70
2023-02-13T17:05:17.328Z,30.00
2023-02-13T17:07:53.125Z,27.20
2023-02-13T17:10:31.238Z,28.20
2023-02-13T17:13:07.078Z,29.40
2023-02-13T17:15:35.332Z,31.40
2023-02-13T17:18:04.101Z,26.90
2023-02-13T17:20:33.473Z,29.20
2023-02-13T17:23:04.784Z,28.80
2023-02-13T17:25:34.884Z,29.70
2023-02-13T17:28:24.391Z,27.20
2023-02-13T17:30:54.511Z,28.40
2023-02-13T17:33:25.115Z,30.20
2023-02-13T17:35:53.586Z,29.70
2023-02-13T17:38:22.378Z,36.50
2023-02-13T17:40:52.432Z,29.60
2023-02-13T17:43:21.900Z,32.10
2023-02-13T17:45:50.099Z,30.30
2023-02-13T17:48:20.405Z,29.70
2023-02-13T17:50:50.638Z,30.20
2023-02-13T17:53:24.342Z,29.80
2023-02-13T17:55:54.950Z,26.70
2023-02-13T17:58:23.330Z,28.10
2023-02-13T18:00:52.587Z,31.60
2023-02-13T18:03:22.507Z,28.00
2023-02-13T18:05:50.717Z,28.20
2023-02-13T18:08:20.448Z,28.20
2023-02-13T18:10:50.199Z,26.00
2023-02-13T18:13:19.585Z,28.20
2023-02-13T18:15:50.752Z,27.10
2023-02-13T18:18:19.991Z,26.20
2023-02-13T18:20:57.788Z,26.70
2023-02-13T18:23:26.794Z,26.20
2023-02-13T18:26:07.144Z,26.40
2023-02-13T18:28:38.209Z,28.40
2023-02-13T18:31:11.324Z,25.40
2023-02-13T18:33:42.661Z,26.90
2023-02-13T18:36:12.113Z,27.90
2023-02-13T18:38:40.144Z,27.40
2023-02-13T18:41:08.483Z,28.80
2023-02-13T18:43:37.069Z,30.30
2023-02-13T18:46:05.524Z,28.00
2023-02-13T18:48:38.357Z,30.00
2023-02-13T18:51:07.941Z,30.50
2023-02-13T18:53:37.663Z,26.70
2023-02-13T18:56:07.429Z,26.30
2023-02-13T18:58:35.842Z,29.90
2023-02-13T19:01:12.796Z,29.80
2023-02-13T19:03:41.510Z,28.40
2023-02-13T19:06:11.418Z,28.40
2023-02-13T19:08:39.824Z,27.80
2023-02-13T19:11:10.537Z,28.40
2023-02-13T19:13:39.021Z,29.20
2023-02-13T19:16:17.711Z,29.70
2023-02-13T19:18:47.930Z,29.00
2023-02-13T19:21:16.340Z,27.60
2023-02-13T19:23:44.470Z,27.30
2023-02-13T19:26:15.493Z,26.70
2023-02-13T19:28:43.620Z,28.00
2023-02-13T19:31:18.609Z,27.40
2023-02-13T19:33:46.880Z,27.30
2023-02-13T19:36:19.655Z,25.80
2023-02-13T19:38:48.876Z,26.80
2023-02-13T19:41:18.027Z,28.10
2023-02-13T19:43:54.003Z,25.60
2023-02-13T19:46:27.034Z,24.20
2023-02-13T19:48:56.385Z,25.50
2023-02-13T19:51:27.845Z,29.20
2023-02-13T19:54:07.787Z,24.30
2023-02-13T19:56:38.102Z,26.70
2023-02-13T19:59:07.403Z,27.40
2023-02-13T20:01:38.152Z,28.40
2023-02-13T20:04:06.399Z,27.20
2023-02-13T20:06:35.953Z,26.20
2023-02-13T20:09:08.302Z,26.00
2023-02-13T20:11:36.674Z,24.30
2023-02-13T20:14:05.621Z,24.10
2023-02-13T20:16:37.113Z,22.60
2023-02-13T20:19:11.854Z,23.80
2023-02-13T20:21:41.610Z,21.50
2023-02-13T20:24:10.686Z,24.10
2023-02-13T20:26:40.369Z,23.70
2023-02-13T20:29:09.875Z,23.10
2023-02-13T20:31:41.480Z,24.50
2023-02-13T20:34:10.513Z,24.70
2023-02-13T20:36:39.814Z,23.90
2023-02-13T20:39:11.270Z,24.60
2023-02-13T20:41:40.056Z,26.50
2023-02-13T20:44:11.653Z,27.50
2023-02-13T20:46:40.299Z,22.50
2023-02-13T20:49:09.801Z,25.10
2023-02-13T20:51:38.391Z,24.90
2023-02-13T20:54:06.982Z,22.70
2023-02-13T20:56:35.794Z,21.80
2023-02-13T20:59:05.376Z,22.60
2023-02-13T21:01:40.610Z,21.20
2023-02-13T21:04:10.271Z,21.90
2023-02-13T21:06:39.006Z,19.60
2023-02-13T21:09:09.027Z,17.60
2023-02-13T21:11:42.415Z,18.70
2023-02-13T21:14:11.540Z,19.50
2023-02-13T21:16:40.275Z,16.80
2023-02-13T21:19:14.822Z,17.70
2023-02-13T21:21:44.330Z,17.80
2023-02-13T21:24:17.831Z,17.10
2023-02-13T21:26:47.787Z,17.10
2023-02-13T21:29:16.334Z,18.90
2023-02-13T21:31:47.952Z,17.40
2023-02-13T21:34:17.190Z,16.80
2023-02-13T21:36:45.476Z,17.60
2023-02-13T21:39:14.510Z,17.20
2023-02-13T21:41:44.003Z,16.90
2023-02-13T21:44:15.816Z,16.30
2023-02-13T21:46:46.305Z,17.10
2023-02-13T21:49:17.626Z,17.60
2023-02-13T21:51:46.611Z,17.00
2023-02-13T21:54:34.649Z,15.70
2023-02-13T21:57:03.949Z,16.60
2023-02-13T21:59:32.894Z,16.40
2023-02-13T22:02:02.901Z,16.90
2023-02-13T22:04:31.235Z,15.60
2023-02-13T22:06:59.926Z,19.00
2023-02-13T22:09:28.207Z,16.90
2023-02-13T22:11:56.448Z,17.00
2023-02-13T22:14:24.791Z,19.70
2023-02-13T22:16:53.627Z,17.20
2023-02-13T22:19:22.368Z,17.30
2023-02-13T22:21:50.822Z,17.70
2023-02-13T22:24:18.961Z,18.10
2023-02-13T22:26:48.023Z,19.10
2023-02-13T22:29:17.866Z,17.80
2023-02-13T22:31:46.641Z,17.90
2023-02-13T22:34:14.874Z,17.90
2023-02-13T22:36:43.556Z,17.40
2023-02-13T22:39:12.950Z,19.20
2023-02-13T22:41:45.731Z,19.20
2023-02-13T22:44:14.236Z,18.10
2023-02-13T22:46:42.747Z,18.80
2023-02-13T22:49:11.085Z,18.80
2023-02-13T22:51:39.760Z,17.90
2023-02-13T22:54:08.169Z,17.30
2023-02-13T22:56:36.324Z,17.80
2023-02-13T22:59:07.676Z,17.90
2023-02-13T23:01:35.958Z,17.00
2023-02-13T23:04:04.242Z,18.50
2023-02-13T23:06:35.466Z,18.60
2023-02-13T23:09:03.941Z,21.10
2023-02-13T23:12:04.722Z,19.60
2023-02-13T23:14:33.831Z,22.40
2023-02-13T23:17:20.762Z,19.60
2023-02-13T23:19:49.576Z,21.20
2023-02-13T23:22:17.752Z,20.70
2023-02-13T23:24:46.168Z,21.00
2023-02-13T23:27:16.046Z,19.10
2023-02-13T23:29:44.380Z,20.80
2023-02-13T23:32:13.304Z,19.80
2023-02-13T23:34:41.685Z,22.00
2023-02-13T23:37:10.200Z,20.10
2023-02-13T23:39:38.465Z,22.90
2023-02-13T23:42:06.974Z,25.90
2023-02-13T23:44:35.086Z,22.10
2023-02-13T23:47:03.284Z,22.70
2023-02-13T23:49:31.501Z,24.40
2023-02-13T23:52:06.454Z,25.10
2023-02-13T23:54:34.668Z,23.00
2023-02-13T23:57:03.873Z,23.10
2023-02-13T23:59:33.683Z,22.80
